Time;durP1;ratioP1;P1;durP2;ratioP2;P2;SDS_P1;SDS_P2;PMS_P1;PMS_P2;Temp;Humidity;BMP_temperature;BMP_pressure;BME280_temperature;BME280_humidity;BME280_pressure;Samples;Min_cycle;Max_cycle;Signal;HPM_P1;HPM_P2
2023/07/26 00:00:24;;;;;;;0.20;0.20;;;;;;;14.84;nan;100089.53;5050547;28;20041;-79
2023/07/26 00:02:50;;;;;;;0.20;0.20;;;;;;;14.82;nan;100086.22;5048080;28;20597;-80
2023/07/26 00:05:15;;;;;;;0.20;0.20;;;;;;;14.80;nan;100090.91;5047040;28;20029;-80
2023/07/26 00:07:40;;;;;;;0.20;0.20;;;;;;;14.78;nan;100100.94;5044988;28;20291;-79
2023/07/26 00:10:06;;;;;;;0.20;0.20;;;;;;;14.76;nan;100097.66;5048921;28;20032;-80
2023/07/26 00:12:31;;;;;;;0.20;0.20;;;;;;;14.76;nan;100100.31;5044368;28;20124;-80
2023/07/26 00:14:56;;;;;;;0.10;0.10;;;;;;;14.74;nan;100100.50;5048633;28;20029;-80
2023/07/26 00:17:22;;;;;;;0.20;0.20;;;;;;;14.75;nan;100098.66;5029545;28;20098;-80
2023/07/26 00:19:47;;;;;;;0.20;0.20;;;;;;;14.76;nan;100097.66;5050703;28;20037;-80
2023/07/26 00:22:12;;;;;;;0.20;0.20;;;;;;;14.78;nan;100093.78;5051267;28;20777;-79
2023/07/26 00:24:38;;;;;;;0.20;0.20;;;;;;;14.80;nan;100109.53;5053235;28;20025;-81
2023/07/26 00:27:03;;;;;;;0.10;0.10;;;;;;;14.80;nan;100106.88;5051838;28;20029;-80
2023/07/26 00:29:28;;;;;;;0.10;0.10;;;;;;;14.81;nan;100112.03;5051754;28;20036;-80
2023/07/26 00:31:54;;;;;;;0.10;0.10;;;;;;;14.82;nan;100108.34;5045247;28;20037;-80
2023/07/26 00:34:19;;;;;;;0.20;0.20;;;;;;;14.84;nan;100114.31;5042011;28;20272;-81
2023/07/26 00:36:44;;;;;;;0.20;0.20;;;;;;;14.84;nan;100105.50;5048428;28;20021;-79
2023/07/26 00:39:10;;;;;;;0.20;0.20;;;;;;;14.86;nan;100106.13;5052371;28;20124;-80
2023/07/26 00:41:35;;;;;;;0.17;0.17;;;;;;;14.84;nan;100106.31;5052041;28;20082;-80
2023/07/26 00:44:00;;;;;;;0.20;0.20;;;;;;;14.84;nan;100106.31;5052754;28;20036;-81
2023/07/26 00:46:26;;;;;;;0.20;0.20;;;;;;;14.86;nan;100104.28;5051360;28;20089;-80
2023/07/26 00:48:51;;;;;;;0.20;0.20;;;;;;;14.86;nan;100106.97;5040966;28;20057;-80
2023/07/26 00:51:17;;;;;;;0.10;0.10;;;;;;;14.83;nan;100101.22;5041436;28;20417;-81
2023/07/26 00:53:43;;;;;;;0.17;0.17;;;;;;;14.80;nan;100109.53;5037172;28;20061;-80
2023/07/26 00:56:09;;;;;;;0.20;0.20;;;;;;;14.79;nan;100118.56;5037758;28;20051;-81
2023/07/26 00:58:35;;;;;;;0.10;0.10;;;;;;;14.79;nan;100110.56;5051454;28;20490;-80
2023/07/26 01:01:00;;;;;;;0.10;0.10;;;;;;;14.75;nan;100111.97;5050797;28;20063;-81
2023/07/26 01:03:25;;;;;;;0.20;0.20;;;;;;;14.80;nan;100123.72;5052070;28;20025;-80
2023/07/26 01:06:30;;;;;;;0.15;0.15;;;;;;;14.80;nan;100115.72;5051920;28;20029;-81
2023/07/26 01:09:21;;;;;;;0.20;0.20;;;;;;;14.84;nan;100122.28;5041662;28;20402;-81
2023/07/26 01:11:59;;;;;;;0.10;0.10;;;;;;;14.88;nan;100117.44;5052827;28;20114;-81
2023/07/26 01:14:36;;;;;;;0.10;0.10;;;;;;;14.89;nan;100126.22;5050620;28;20083;-80
2023/07/26 01:17:02;;;;;;;0.20;0.20;;;;;;;14.89;nan;100123.56;5049194;28;20045;-80
2023/07/26 01:19:27;;;;;;;0.10;0.10;;;;;;;14.88;nan;100122.75;5039348;28;20029;-80
2023/07/26 01:21:53;;;;;;;0.10;0.10;;;;;;;14.86;nan;100116.78;5058956;28;20033;-80
2023/07/26 01:24:18;;;;;;;0.10;0.10;;;;;;;14.81;nan;100129.84;5046200;28;20522;-80
2023/07/26 01:26:43;;;;;;;0.20;0.20;;;;;;;14.74;nan;100124.44;5052014;28;20115;-80
2023/07/26 01:29:08;;;;;;;0.20;0.20;;;;;;;14.70;nan;100127.66;5050492;28;20279;-81
2023/07/26 01:31:35;;;;;;;0.10;0.10;;;;;;;14.70;nan;100133.00;5050294;28;20275;-80
2023/07/26 01:34:01;;;;;;;0.15;0.15;;;;;;;14.72;nan;100134.44;5053591;28;20043;-80
2023/07/26 01:36:29;;;;;;;0.10;0.10;;;;;;;14.77;nan;100128.56;5045396;28;20540;-80
2023/07/26 01:38:56;;;;;;;0.20;0.20;;;;;;;14.83;nan;100125.97;5052454;28;20109;-80
2023/07/26 01:41:22;;;;;;;0.10;0.10;;;;;;;14.90;nan;100138.50;5037847;28;20562;-80
2023/07/26 01:43:48;;;;;;;0.20;0.20;;;;;;;14.90;nan;100127.88;5045578;28;20033;-80
2023/07/26 01:46:14;;;;;;;0.20;0.20;;;;;;;14.80;nan;100125.53;5052288;28;20102;-80
2023/07/26 01:48:40;;;;;;;0.10;0.10;;;;;;;14.73;nan;100128.13;5051682;28;20053;-80
2023/07/26 01:51:05;;;;;;;0.20;0.20;;;;;;;14.69;nan;100126.03;5047092;28;20485;-80
2023/07/26 01:53:31;;;;;;;0.20;0.20;;;;;;;14.64;nan;100131.91;5048603;28;20060;-80
2023/07/26 01:55:56;;;;;;;0.20;0.20;;;;;;;14.62;nan;100125.97;5049878;28;20379;-80
2023/07/26 01:58:21;;;;;;;0.10;0.10;;;;;;;14.59;nan;100135.16;5045120;28;20526;-80
2023/07/26 02:00:48;;;;;;;0.20;0.20;;;;;;;14.57;nan;100131.84;5053693;28;20144;-81
2023/07/26 02:03:13;;;;;;;0.20;0.20;;;;;;;14.54;nan;100132.22;5056331;28;20127;-80
2023/07/26 02:05:43;;;;;;;0.20;0.20;;;;;;;14.54;nan;100132.22;5043302;28;20095;-80
2023/07/26 02:08:08;;;;;;;0.20;0.20;;;;;;;14.54;nan;100144.69;5051121;28;20048;-80
2023/07/26 02:10:33;;;;;;;0.20;0.20;;;;;;;14.51;nan;100137.03;5051745;28;20029;-81
2023/07/26 02:12:59;;;;;;;0.20;0.20;;;;;;;14.52;nan;100142.19;5049651;28;20139;-80
2023/07/26 02:15:24;;;;;;;0.20;0.20;;;;;;;14.52;nan;100144.84;5035714;28;20026;-80
2023/07/26 02:17:49;;;;;;;0.20;0.20;;;;;;;14.55;nan;100144.50;5052314;28;20280;-81
2023/07/26 02:20:14;;;;;;;0.20;0.20;;;;;;;14.53;nan;100153.66;5048038;28;20275;-81
2023/07/26 02:22:40;;;;;;;0.10;0.10;;;;;;;14.51;nan;100150.34;5058291;28;20033;-81
2023/07/26 02:25:05;;;;;;;0.20;0.20;;;;;;;14.53;nan;100154.47;5052852;28;20025;-81
2023/07/26 02:27:30;;;;;;;0.20;0.20;;;;;;;14.52;nan;100150.19;5052397;28;20668;-80
2023/07/26 02:29:56;;;;;;;0.20;0.20;;;;;;;14.52;nan;100154.69;5049590;28;20037;-81
2023/07/26 02:32:21;;;;;;;0.20;0.20;;;;;;;14.49;nan;100153.22;5050141;28;20523;-81
2023/07/26 02:34:46;;;;;;;0.20;0.20;;;;;;;14.50;nan;100154.03;5048415;28;20514;-81
2023/07/26 02:37:12;;;;;;;0.20;0.20;;;;;;;14.51;nan;100148.50;5051049;28;20502;-81
2023/07/26 02:39:37;;;;;;;0.20;0.20;;;;;;;14.54;nan;100160.66;5051518;28;20286;-81
2023/07/26 02:42:02;;;;;;;0.20;0.20;;;;;;;14.56;nan;100153.31;5051752;28;20132;-80
2023/07/26 02:44:28;;;;;;;0.20;0.20;;;;;;;14.57;nan;100154.97;5051180;28;20402;-81
2023/07/26 02:46:53;;;;;;;0.10;0.10;;;;;;;14.58;nan;100157.41;5047878;28;20042;-81
2023/07/26 02:49:18;;;;;;;0.17;0.17;;;;;;;14.57;nan;100158.44;5036966;28;20116;-81
2023/07/26 02:51:43;;;;;;;0.20;0.20;;;;;;;14.54;nan;100160.66;5042339;28;20029;-80
2023/07/26 02:54:09;;;;;;;0.20;0.20;;;;;;;14.54;nan;100155.31;5038720;28;20033;-80
2023/07/26 02:56:34;;;;;;;0.20;0.20;;;;;;;14.52;nan;100160.00;5052031;28;20294;-82
2023/07/26 02:58:59;;;;;;;0.20;0.20;;;;;;;14.50;nan;100162.03;5051817;28;20032;-81
2023/07/26 03:01:24;;;;;;;0.20;0.20;;;;;;;14.52;nan;100160.81;5051966;28;20279;-80
2023/07/26 03:03:50;;;;;;;0.20;0.20;;;;;;;14.55;nan;100164.97;5047444;28;20661;-81
2023/07/26 03:06:15;;;;;;;0.20;0.20;;;;;;;14.59;nan;100182.22;5046132;28;20287;-81
2023/07/26 03:08:40;;;;;;;0.20;0.20;;;;;;;14.57;nan;100179.75;5051901;28;20094;-81
2023/07/26 03:11:08;;;;;;;0.10;0.10;;;;;;;14.59;nan;100172.41;5051576;28;20403;-81
2023/07/26 03:13:33;;;;;;;0.10;0.10;;;;;;;14.62;nan;100177.34;5050574;28;20275;-81
2023/07/26 03:15:58;;;;;;;0.10;0.10;;;;;;;14.57;nan;100174.41;5051874;28;20048;-81
2023/07/26 03:18:24;;;;;;;0.10;0.10;;;;;;;14.50;nan;100178.78;5055842;28;20042;-81
2023/07/26 03:20:49;;;;;;;0.10;0.10;;;;;;;14.49;nan;100186.94;5044804;28;20037;-81
2023/07/26 03:23:14;;;;;;;0.20;0.20;;;;;;;14.45;nan;100194.50;5032405;28;20025;-81
2023/07/26 03:25:41;;;;;;;0.20;0.20;;;;;;;14.43;nan;100193.84;5050943;28;20029;-81
2023/07/26 03:28:10;;;;;;;0.20;0.20;;;;;;;14.41;nan;100190.53;5051387;28;20574;-81
2023/07/26 03:30:35;;;;;;;0.10;0.10;;;;;;;14.39;nan;100188.06;5049885;28;20040;-80
2023/07/26 03:33:00;;;;;;;0.10;0.10;;;;;;;14.36;nan;100192.94;5043656;28;20025;-80
2023/07/26 03:35:25;;;;;;;0.20;0.20;;;;;;;14.32;nan;100186.34;5052390;28;20108;-81
2023/07/26 03:37:51;;;;;;;0.20;0.20;;;;;;;14.29;nan;100190.19;5046717;28;20061;-80
2023/07/26 03:40:16;;;;;;;0.10;0.10;;;;;;;14.24;nan;100189.91;5031925;28;20341;-80
2023/07/26 03:42:41;;;;;;;0.10;0.10;;;;;;;14.23;nan;100191.75;5050923;28;20281;-81
2023/07/26 03:45:07;;;;;;;0.10;0.10;;;;;;;14.21;nan;100187.63;5056258;28;20048;-81
2023/07/26 03:47:32;;;;;;;0.20;0.20;;;;;;;14.22;nan;100189.28;5036227;28;20048;-81
2023/07/26 03:49:59;;;;;;;0.10;0.10;;;;;;;14.17;nan;100187.16;5036727;28;20114;-81
2023/07/26 03:52:24;;;;;;;0.20;0.20;;;;;;;14.14;nan;100194.69;5050819;28;20029;-81
2023/07/26 03:54:50;;;;;;;0.13;0.13;;;;;;;14.12;nan;100199.38;5046215;28;20037;-81
2023/07/26 03:57:15;;;;;;;0.10;0.10;;;;;;;14.09;nan;100207.72;5045232;28;20056;-81
2023/07/26 03:59:40;;;;;;;0.20;0.20;;;;;;;14.03;nan;100206.59;5050789;28;20253;-81
2023/07/26 04:02:05;;;;;;;0.10;0.10;;;;;;;14.02;nan;100207.63;5051700;28;20781;-81
2023/07/26 04:04:31;;;;;;;0.10;0.10;;;;;;;14.00;nan;100209.63;5051035;28;20267;-80
2023/07/26 04:06:56;;;;;;;0.13;0.13;;;;;;;13.98;nan;100209.78;5050690;28;20025;-81
2023/07/26 04:09:21;;;;;;;0.10;0.10;;;;;;;13.95;nan;100204.03;5051394;28;20028;-81
2023/07/26 04:11:46;;;;;;;0.10;0.10;;;;;;;13.93;nan;100208.69;5035505;28;20116;-80
2023/07/26 04:14:12;;;;;;;0.10;0.10;;;;;;;13.87;nan;100206.75;5052884;28;20029;-81
2023/07/26 04:16:37;;;;;;;0.20;0.20;;;;;;;13.81;nan;100203.81;5053196;28;20274;-81
2023/07/26 04:19:02;;;;;;;0.13;0.13;;;;;;;13.83;nan;100216.13;5054327;28;20094;-80
2023/07/26 04:21:27;;;;;;;0.10;0.10;;;;;;;13.76;nan;100211.50;5056332;28;20088;-81
2023/07/26 04:23:53;;;;;;;0.10;0.10;;;;;;;13.74;nan;100212.69;5051163;28;20033;-81
2023/07/26 04:26:19;;;;;;;0.20;0.20;;;;;;;13.74;nan;100212.69;5038352;28;20087;-81
2023/07/26 04:28:44;;;;;;;0.10;0.10;;;;;;;13.71;nan;100227.16;5036050;28;20040;-81
2023/07/26 04:31:10;;;;;;;0.10;0.10;;;;;;;13.74;nan;100210.88;5049710;28;20771;-81
2023/07/26 04:33:35;;;;;;;0.20;0.20;;;;;;;13.79;nan;100223.59;5050066;28;20454;-81
2023/07/26 04:36:00;;;;;;;0.10;0.10;;;;;;;13.79;nan;100231.59;5052436;28;20021;-81
2023/07/26 04:38:26;;;;;;;0.13;0.13;;;;;;;13.81;nan;100233.06;5051473;28;20390;-80
2023/07/26 04:40:51;;;;;;;0.20;0.20;;;;;;;13.91;nan;100231.97;5052523;28;20397;-81
2023/07/26 04:43:19;;;;;;;0.15;0.15;;;;;;;14.00;nan;100231.72;5050281;28;20086;-81
2023/07/26 04:45:46;;;;;;;0.10;0.10;;;;;;;14.12;nan;100237.41;5046397;28;20032;-81
2023/07/26 04:48:11;;;;;;;0.10;0.10;;;;;;;14.21;nan;100241.63;5052230;28;20045;-81
2023/07/26 04:50:37;;;;;;;0.10;0.10;;;;;;;14.31;nan;100238.72;5062246;28;20558;-81
2023/07/26 04:53:02;;;;;;;0.20;0.20;;;;;;;14.40;nan;100236.78;5042122;28;20267;-81
2023/07/26 04:55:27;;;;;;;0.10;0.10;;;;;;;14.47;nan;100229.72;5046578;28;20280;-80
2023/07/26 04:57:52;;;;;;;0.10;0.10;;;;;;;14.50;nan;100234.66;5055713;28;20499;-81
2023/07/26 05:00:18;;;;;;;0.20;0.20;;;;;;;14.55;nan;100231.50;5050068;28;20035;-81
2023/07/26 05:02:43;;;;;;;0.10;0.10;;;;;;;14.62;nan;100235.06;5035692;28;20029;-81
2023/07/26 05:05:08;;;;;;;0.20;0.20;;;;;;;14.64;nan;100228.53;5049479;28;20049;-81
2023/07/26 05:07:34;;;;;;;0.10;0.10;;;;;;;14.67;nan;100234.50;5053400;28;20037;-81
2023/07/26 05:09:59;;;;;;;0.20;0.20;;;;;;;14.72;nan;100230.25;5059094;28;20033;-80
2023/07/26 05:12:25;;;;;;;0.20;0.20;;;;;;;14.82;nan;100235.28;5052721;28;20124;-81
2023/07/26 05:14:50;;;;;;;0.17;0.17;;;;;;;14.90;nan;100237.88;5050941;28;20030;-80
2023/07/26 05:17:16;;;;;;;0.13;0.13;;;;;;;14.95;nan;100240.78;5057822;28;20090;-80
2023/07/26 05:19:41;;;;;;;0.20;0.20;;;;;;;14.94;nan;100239.13;5045960;28;20502;-81
2023/07/26 05:22:07;;;;;;;0.20;0.20;;;;;;;14.94;nan;100239.13;5051589;28;20032;-80
2023/07/26 05:24:32;;;;;;;0.20;0.20;;;;;;;14.93;nan;100245.47;5058792;28;20518;-80
2023/07/26 05:26:58;;;;;;;0.20;0.20;;;;;;;14.85;nan;100242.94;5057093;28;20043;-81
2023/07/26 05:29:23;;;;;;;0.20;0.20;;;;;;;14.82;nan;100262.72;5055838;28;20088;-80
2023/07/26 05:31:48;;;;;;;0.10;0.10;;;;;;;14.68;nan;100273.41;5055754;28;20037;-79
2023/07/26 05:34:14;;;;;;;0.10;0.10;;;;;;;14.54;nan;100267.91;5054963;28;20037;-81
2023/07/26 05:36:39;;;;;;;0.10;0.10;;;;;;;14.40;nan;100264.22;5049281;28;20429;-80
2023/07/26 05:39:04;;;;;;;0.20;0.20;;;;;;;14.27;nan;100268.50;5052448;28;20107;-82
2023/07/26 05:41:31;;;;;;;0.10;0.10;;;;;;;14.19;nan;100264.94;5049715;28;20044;-81
2023/07/26 05:43:57;;;;;;;0.20;0.20;;;;;;;14.18;nan;100273.94;5052536;28;20045;-81
2023/07/26 05:46:22;;;;;;;0.17;0.17;;;;;;;14.21;nan;100281.53;5054093;28;20450;-82
2023/07/26 05:48:48;;;;;;;0.20;0.20;;;;;;;14.19;nan;100275.56;5049726;28;20061;-82
2023/07/26 05:51:13;;;;;;;0.10;0.10;;;;;;;14.19;nan;100280.06;5049861;28;20064;-81
2023/07/26 05:53:38;;;;;;;0.20;0.20;;;;;;;14.19;nan;100280.06;5061256;28;20517;-82
2023/07/26 05:56:04;;;;;;;0.10;0.10;;;;;;;14.18;nan;100278.41;5048665;28;20120;-81
2023/07/26 05:58:29;;;;;;;0.20;0.20;;;;;;;14.14;nan;100277.94;5050795;28;20287;-81
2023/07/26 06:00:55;;;;;;;0.10;0.10;;;;;;;14.15;nan;100281.44;5050019;28;20092;-80
2023/07/26 06:03:20;;;;;;;0.20;0.20;;;;;;;14.15;nan;100282.25;5049029;28;20263;-80
2023/07/26 06:05:45;;;;;;;0.10;0.10;;;;;;;14.19;nan;100288.03;5047303;28;20395;-80
2023/07/26 06:08:11;;;;;;;0.20;0.20;;;;;;;14.15;nan;100289.41;5051723;28;20407;-80
2023/07/26 06:10:36;;;;;;;0.20;0.20;;;;;;;14.18;nan;100289.88;5052468;28;20383;-80
2023/07/26 06:13:01;;;;;;;0.20;0.20;;;;;;;14.16;nan;100288.41;5052388;28;20029;-80
2023/07/26 06:15:27;;;;;;;0.20;0.20;;;;;;;14.17;nan;100295.38;5052970;28;20037;-80
2023/07/26 06:17:52;;;;;;;0.20;0.20;;;;;;;14.24;nan;100297.13;5053992;28;20041;-82
2023/07/26 06:20:18;;;;;;;0.10;0.10;;;;;;;14.24;nan;100290.97;5048942;28;20102;-80
2023/07/26 06:22:43;;;;;;;0.10;0.10;;;;;;;14.28;nan;100294.94;5035798;28;20533;-80
2023/07/26 06:25:08;;;;;;;0.20;0.20;;;;;;;14.29;nan;100304.56;5052886;28;20025;-81
2023/07/26 06:27:34;;;;;;;0.20;0.20;;;;;;;14.30;nan;100297.41;5051874;28;20031;-81
2023/07/26 06:29:59;;;;;;;0.10;0.10;;;;;;;14.33;nan;100308.50;5054532;28;20029;-80
2023/07/26 06:32:24;;;;;;;0.10;0.10;;;;;;;14.31;nan;100320.34;5055212;28;20429;-80
2023/07/26 06:34:50;;;;;;;0.20;0.20;;;;;;;14.29;nan;100317.03;5055705;28;20068;-82
2023/07/26 06:37:15;;;;;;;0.10;0.10;;;;;;;14.29;nan;100319.69;5049284;28;20104;-82
2023/07/26 06:39:40;;;;;;;0.13;0.13;;;;;;;14.22;nan;100324.91;5047734;28;20066;-82
2023/07/26 06:42:06;;;;;;;0.20;0.20;;;;;;;14.20;nan;100319.75;5053785;28;20120;-80
2023/07/26 06:44:31;;;;;;;0.20;0.20;;;;;;;14.24;nan;100323.72;5055003;28;20597;-80
2023/07/26 06:46:56;;;;;;;0.20;0.20;;;;;;;14.26;nan;100322.72;5061587;28;20070;-82
2023/07/26 06:49:22;;;;;;;0.20;0.20;;;;;;;14.25;nan;100321.88;5047509;28;20284;-80
2023/07/26 06:51:50;;;;;;;0.20;0.20;;;;;;;14.29;nan;100320.50;5047636;28;20032;-81
2023/07/26 06:54:15;;;;;;;0.20;0.20;;;;;;;14.28;nan;100323.34;5054311;28;20037;-81
2023/07/26 06:56:41;;;;;;;0.15;0.15;;;;;;;14.27;nan;100335.81;5049231;28;20402;-81
2023/07/26 06:59:11;;;;;;;0.20;0.20;;;;;;;14.32;nan;100324.63;5057712;28;20048;-82
2023/07/26 07:01:36;;;;;;;0.10;0.10;;;;;;;14.32;nan;100332.63;5049281;28;20109;-81
2023/07/26 07:04:02;;;;;;;0.13;0.13;;;;;;;14.34;nan;100343.91;5054514;28;20108;-81
2023/07/26 07:06:27;;;;;;;0.10;0.10;;;;;;;14.36;nan;100337.41;5056184;28;20108;-81
2023/07/26 07:08:52;;;;;;;0.10;0.10;;;;;;;14.37;nan;100340.88;5056049;28;20079;-81
2023/07/26 07:11:18;;;;;;;0.20;0.20;;;;;;;14.42;nan;100333.22;5056347;28;20494;-82
2023/07/26 07:13:43;;;;;;;0.20;0.20;;;;;;;14.43;nan;100332.19;5048117;28;20039;-81
2023/07/26 07:16:08;;;;;;;0.10;0.10;;;;;;;14.54;nan;100339.75;5055622;28;20275;-81
2023/07/26 07:18:33;;;;;;;0.10;0.10;;;;;;;14.60;nan;100331.03;5052277;28;20056;-81
2023/07/26 07:21:00;;;;;;;0.20;0.20;;;;;;;14.59;nan;100318.75;5045981;28;20448;-81
2023/07/26 07:23:28;;;;;;;0.20;0.20;;;;;;;14.53;nan;100305.31;5053391;28;20044;-82
2023/07/26 07:25:53;;;;;;;0.20;0.20;;;;;;;14.52;nan;100301.00;5064537;28;20031;-82
2023/07/26 07:28:19;;;;;;;0.10;0.10;;;;;;;14.55;nan;100306.00;5049467;28;20033;-82
2023/07/26 07:30:44;;;;;;;0.20;0.20;;;;;;;14.54;nan;100307.84;5055668;28;20037;-81
2023/07/26 07:33:10;;;;;;;0.20;0.20;;;;;;;14.56;nan;100308.47;5050098;28;20072;-81
2023/07/26 07:35:35;;;;;;;0.20;0.20;;;;;;;14.58;nan;100316.25;5052943;28;20043;-81
2023/07/26 07:38:00;;;;;;;0.10;0.10;;;;;;;14.63;nan;100314.72;5055447;28;20309;-82
2023/07/26 07:40:26;;;;;;;0.20;0.20;;;;;;;14.67;nan;100320.50;5050883;28;20044;-81
2023/07/26 07:42:51;;;;;;;0.10;0.10;;;;;;;14.69;nan;100321.13;5054480;28;20025;-80
2023/07/26 07:45:17;;;;;;;0.10;0.10;;;;;;;14.80;nan;100328.66;5049262;28;20037;-83
2023/07/26 07:47:42;;;;;;;0.20;0.20;;;;;;;14.93;nan;100321.88;5047680;28;20104;-81
2023/07/26 07:50:08;;;;;;;0.10;0.10;;;;;;;15.03;nan;100328.53;5056596;28;20033;-81
2023/07/26 07:52:33;;;;;;;0.10;0.10;;;;;;;15.14;nan;100323.75;5055599;28;20025;-81
2023/07/26 07:54:58;;;;;;;0.20;0.20;;;;;;;15.19;nan;100329.34;5053522;28;20021;-82
2023/07/26 07:57:24;;;;;;;0.10;0.10;;;;;;;15.27;nan;100331.91;5051512;28;20503;-81
2023/07/26 07:59:49;;;;;;;0.20;0.20;;;;;;;15.43;nan;100338.84;5055707;28;20029;-82
2023/07/26 08:02:14;;;;;;;0.10;0.10;;;;;;;15.56;nan;100336.31;5052933;28;20437;-83
2023/07/26 08:04:40;;;;;;;0.10;0.10;;;;;;;16.03;nan;100340.28;5054269;28;20485;-83
2023/07/26 08:07:05;;;;;;;0.10;0.10;;;;;;;16.13;nan;100332.75;5057299;28;20029;-82
2023/07/26 08:09:30;;;;;;;0.10;0.10;;;;;;;16.33;nan;100340.13;5046284;28;20029;-82
2023/07/26 08:11:56;;;;;;;0.10;0.10;;;;;;;16.46;nan;100337.53;5055936;28;20035;-84
2023/07/26 08:14:22;;;;;;;0.10;0.10;;;;;;;16.80;nan;100340.44;5051851;28;20552;-83
2023/07/26 08:16:47;;;;;;;0.13;0.13;;;;;;;16.91;nan;100337.22;5056812;28;20037;-82
2023/07/26 08:19:12;;;;;;;0.20;0.20;;;;;;;16.93;nan;100337.84;5060989;28;20448;-82
2023/07/26 08:21:38;;;;;;;0.10;0.10;;;;;;;17.19;nan;100340.63;5058744;28;20818;-83
2023/07/26 08:24:03;;;;;;;;;;;;;;;17.38;nan;100338.25;5042048;28;20571;-82
2023/07/26 08:26:28;;;;;;;0.10;0.10;;;;;;;17.54;nan;100343.22;5052000;28;19921;-81
2023/07/26 08:28:53;;;;;;;0.10;0.10;;;;;;;17.80;nan;100338.94;5051537;28;20460;-81
2023/07/26 08:31:19;;;;;;;0.10;0.10;;;;;;;18.23;nan;100338.56;5051608;28;20428;-82
2023/07/26 08:33:44;;;;;;;0.10;0.10;;;;;;;18.80;nan;100339.75;5052148;28;20520;-80
2023/07/26 08:36:09;;;;;;;;;;;;;;;19.08;nan;100352.03;5058443;28;20033;-82
2023/07/26 08:38:34;;;;;;;;;;;;;;;19.08;nan;100344.81;5058184;28;20370;-83
2023/07/26 08:41:00;;;;;;;;;;;;;;;19.32;nan;100339.75;5052332;28;19944;-82
2023/07/26 08:43:31;;;;;;;0.10;0.10;;;;;;;19.39;nan;100337.06;5054779;28;19917;-81
2023/07/26 08:45:57;;;;;;;;;;;;;;;19.71;nan;100341.44;5053820;28;20023;-82
2023/07/26 08:48:22;;;;;;;;;;;;;;;20.13;nan;100351.66;5050096;28;20370;-80
2023/07/26 08:50:48;;;;;;;;;;;;;;;20.39;nan;100333.69;5048667;28;19927;-80
2023/07/26 08:53:14;;;;;;;0.10;0.10;;;;;;;20.41;nan;100336.97;5046661;28;20378;-80
2023/07/26 08:55:39;;;;;;;0.10;0.10;;;;;;;20.35;nan;100341.34;5053843;28;20040;-81
2023/07/26 08:58:05;;;;;;;0.10;0.10;;;;;;;20.54;nan;100334.13;5039293;28;20442;-83
2023/07/26 09:00:31;;;;;;;0.00;0.00;;;;;;;20.58;nan;100338.88;5045048;28;20398;-81
2023/07/26 09:02:58;;;;;;;0.00;0.00;;;;;;;20.53;nan;100341.38;5048990;28;20045;-84
2023/07/26 09:05:24;;;;;;;0.00;0.00;;;;;;;20.10;nan;100344.88;5052137;28;20446;-82
2023/07/26 09:07:53;;;;;;;0.10;0.10;;;;;;;20.17;nan;100338.63;5052730;28;20032;-83
2023/07/26 09:10:23;;;;;;;0.00;0.00;;;;;;;20.41;nan;100343.16;5051314;28;20406;-82
2023/07/26 09:12:49;;;;;;;0.00;0.00;;;;;;;20.65;nan;100344.19;5046771;28;20415;-81
2023/07/26 09:15:14;;;;;;;0.00;0.00;;;;;;;20.87;nan;100341.88;5043102;28;20563;-82
2023/07/26 09:17:43;;;;;;;;;;;;;;;20.31;nan;100334.78;5050269;28;20045;-83
2023/07/26 09:20:25;;;;;;;0.10;0.10;;;;;;;20.36;nan;100338.44;5048939;28;19940;-83
2023/07/26 09:23:10;;;;;;;0.10;0.10;;;;;;;20.18;nan;100335.72;5050707;28;20425;-82
2023/07/26 09:25:41;;;;;;;0.10;0.10;;;;;;;20.40;nan;100333.44;5050222;28;20307;-82
2023/07/26 09:28:17;;;;;;;0.10;0.10;;;;;;;20.54;nan;100324.22;5050556;28;20033;-83
2023/07/26 09:30:50;;;;;;;0.10;0.10;;;;;;;20.39;nan;100318.38;5047045;28;20037;-82
2023/07/26 09:33:16;;;;;;;0.10;0.10;;;;;;;19.95;nan;100312.19;5048934;28;20033;-81
2023/07/26 09:35:45;;;;;;;0.10;0.10;;;;;;;19.47;nan;100309.97;5053486;28;20034;-83
2023/07/26 09:38:15;;;;;;;0.10;0.10;;;;;;;19.08;nan;100304.63;5052135;28;20095;-81
2023/07/26 09:40:41;;;;;;;0.10;0.10;;;;;;;18.70;nan;100317.91;5054991;28;20032;-82
2023/07/26 09:43:06;;;;;;;0.10;0.10;;;;;;;18.30;nan;100315.31;5055804;28;20384;-81
2023/07/26 09:45:32;;;;;;;0.10;0.10;;;;;;;18.02;nan;100313.69;5054446;28;20033;-81
2023/07/26 09:48:08;;;;;;;0.10;0.10;;;;;;;17.77;nan;100317.97;5053807;28;20029;-82
2023/07/26 09:50:35;;;;;;;0.10;0.10;;;;;;;17.56;nan;100319.75;5051958;28;20025;-82
2023/07/26 09:53:05;;;;;;;0.17;0.17;;;;;;;17.44;nan;100320.56;5068730;28;20033;-83
2023/07/26 09:55:32;;;;;;;0.10;0.10;;;;;;;17.42;nan;100320.75;5054607;28;20116;-81
2023/07/26 09:57:57;;;;;;;0.10;0.10;;;;;;;17.48;nan;100314.63;5048098;28;20044;-81
2023/07/26 10:00:26;;;;;;;0.20;0.20;;;;;;;17.56;nan;100309.06;5049241;28;20033;-81
2023/07/26 10:02:58;;;;;;;0.20;0.20;;;;;;;17.81;nan;100305.84;5048298;28;20041;-81
2023/07/26 10:05:29;;;;;;;0.10;0.10;;;;;;;17.91;nan;100303.59;5044605;28;20064;-81
2023/07/26 10:07:55;;;;;;;;;;;;;;;17.97;nan;100304.59;5055778;28;20494;-81
2023/07/26 10:10:22;;;;;;;0.10;0.10;;;;;;;18.11;nan;100302.75;5050703;28;19928;-81
2023/07/26 10:12:52;;;;;;;0.10;0.10;;;;;;;18.49;nan;100299.44;5048034;28;20171;-81
2023/07/26 10:15:20;;;;;;;0.20;0.20;;;;;;;20.47;nan;100296.59;5051839;28;20074;-82
2023/07/26 10:17:49;;;;;;;0.20;0.20;;;;;;;22.35;nan;100282.22;5049690;28;20049;-82
2023/07/26 10:20:15;;;;;;;0.10;0.10;;;;;;;23.97;nan;100177.56;5051288;28;20375;-82
2023/07/26 10:22:42;;;;;;;0.10;0.10;;;;;;;23.81;nan;100289.97;5049004;28;20071;-81
2023/07/26 10:25:07;;;;;;;;;;;;;;;22.78;nan;100287.19;5049533;28;20029;-82
2023/07/26 10:27:33;;;;;;;0.00;0.00;;;;;;;22.16;nan;100295.78;5049175;28;19924;-82
2023/07/26 10:29:59;;;;;;;;;;;;;;;21.26;nan;100294.06;5049813;28;20399;-82
2023/07/26 10:32:24;;;;;;;0.10;0.10;;;;;;;20.94;nan;100296.94;5050941;28;19931;-82
2023/07/26 10:34:54;;;;;;;0.10;0.10;;;;;;;21.80;nan;100289.53;5050469;28;20327;-82
2023/07/26 10:37:19;;;;;;;0.10;0.10;;;;;;;;;;5051549;28;20040;-82
2023/07/26 10:39:45;;;;;;;;;;;;;;;24.60;nan;100175.44;5048138;28;20048;-79
2023/07/26 10:42:24;;;;;;;;;;;;;;;24.07;nan;100283.06;5054877;28;19913;-82
2023/07/26 10:44:49;;;;;;;;;;;;;;;23.21;nan;100279.69;5054091;28;19921;-79
2023/07/26 10:47:14;;;;;;;;;;;;;;;22.52;nan;100148.41;5053696;28;19917;-81
2023/07/26 10:49:43;;;;;;;;;;;;;;;22.24;nan;100146.53;5048907;28;19917;-83
2023/07/26 10:52:09;;;;;;;;;;;;;;;21.96;nan;100142.66;5048912;28;19917;-83
2023/07/26 10:54:34;;;;;;;;;;;;;;;;;;5053389;28;19916;-83
2023/07/26 10:57:18;;;;;;;;;;;;;;;21.46;nan;100274.97;5049528;28;19935;-83
2023/07/26 11:00:06;;;;;;;0.10;0.10;;;;;;;21.06;nan;100269.28;5049158;28;19934;-84
2023/07/26 11:02:37;;;;;;;0.10;0.10;;;;;;;20.85;nan;100274.09;5048538;28;20059;-81
2023/07/26 11:05:10;;;;;;;0.10;0.10;;;;;;;20.50;nan;100274.69;5052767;28;20477;-82
2023/07/26 11:07:51;;;;;;;0.10;0.10;;;;;;;19.50;nan;100288.13;5046003;28;20048;-81
2023/07/26 11:10:18;;;;;;;0.10;0.10;;;;;;;18.78;nan;100282.91;5046462;28;20132;-81
2023/07/26 11:12:44;;;;;;;0.10;0.10;;;;;;;18.28;nan;100292.44;5052277;28;20056;-79
2023/07/26 11:15:09;;;;;;;0.10;0.10;;;;;;;17.76;nan;100293.06;5052282;28;20041;-80
2023/07/26 11:17:42;;;;;;;0.10;0.10;;;;;;;17.44;nan;100294.66;5045163;28;20410;-80
2023/07/26 11:20:09;;;;;;;0.10;0.10;;;;;;;17.18;nan;100298.91;5049109;28;20120;-81
2023/07/26 11:22:34;;;;;;;0.17;0.17;;;;;;;16.94;nan;100289.56;5051853;28;20033;-80
2023/07/26 11:25:05;;;;;;;0.20;0.20;;;;;;;17.09;nan;100293.94;5049858;28;20032;-81
2023/07/26 11:27:31;;;;;;;0.10;0.10;;;;;;;18.03;nan;100111.16;5049650;28;20042;-80
2023/07/26 11:30:00;;;;;;;0.10;0.10;;;;;;;20.01;nan;100291.69;5047344;28;20113;-81
2023/07/26 11:32:29;;;;;;;;;;;;;;;22.19;nan;100197.53;5046925;28;20043;-81
2023/07/26 11:34:54;;;;;;;;;;;;;;;24.19;nan;100172.19;5051658;28;20267;-81
2023/07/26 11:37:20;;;;;;;;;;;;;;;25.89;nan;100166.56;5045695;28;19921;-83
2023/07/26 11:39:45;;;;;;;;;;;;;;;26.66;nan;100170.44;5051620;28;19916;-79
2023/07/26 11:42:15;;;;;;;;;;;;;;;26.59;nan;100170.69;5051133;28;19923;-79
2023/07/26 11:44:40;;;;;;;;;;;;;;;;;;5049664;28;19917;-79